Time;durP1;ratioP1;P1;durP2;ratioP2;P2;SDS_P1;SDS_P2;PMS_P1;PMS_P2;Temp;Humidity;BMP_temperature;BMP_pressure;BME280_temperature;BME280_humidity;BME280_pressure;Samples;Min_cycle;Max_cycle;Signal;HPM_P1;HPM_P2
2021/07/05 00:01:14;;;;;;;2.47;2.22;;;;;;;16.67;78.32;98453.66;3589252;40;20056;-64
2021/07/05 00:03:43;;;;;;;7.85;2.55;;;;;;;16.60;78.71;98446.59;3589377;40;20048;-64
2021/07/05 00:06:11;;;;;;;3.97;2.28;;;;;;;16.58;78.43;98447.91;3589112;40;20092;-63
2021/07/05 00:08:39;;;;;;;3.22;2.40;;;;;;;16.57;79.07;98451.59;3598806;40;20242;-64
2021/07/05 00:11:07;;;;;;;5.65;2.38;;;;;;;16.58;79.17;98450.56;3589358;40;20080;-64
2021/07/05 00:13:36;;;;;;;8.32;2.22;;;;;;;16.62;79.25;98448.25;3598616;40;20059;-63
2021/07/05 00:16:05;;;;;;;4.28;2.40;;;;;;;16.64;79.17;98456.81;3598316;40;20385;-64
2021/07/05 00:18:32;;;;;;;4.25;2.65;;;;;;;16.66;79.13;98452.06;3598719;40;20393;-63
2021/07/05 00:21:00;;;;;;;4.30;2.40;;;;;;;16.65;78.66;98455.75;3589454;40;20094;-64
2021/07/05 00:23:28;;;;;;;5.00;2.30;;;;;;;16.71;78.70;98457.47;3589503;40;20051;-63
2021/07/05 00:25:56;;;;;;;3.05;2.42;;;;;;;16.74;78.60;98457.03;3598363;40;20051;-63
2021/07/05 00:28:24;;;;;;;2.80;2.05;;;;;;;16.75;78.72;98446.09;3589148;40;20043;-63
2021/07/05 00:30:53;;;;;;;4.93;2.28;;;;;;;16.75;78.48;98446.09;3598552;40;20324;-64
2021/07/05 00:33:21;;;;;;;4.22;2.35;;;;;;;16.76;78.63;98447.72;3598435;40;20129;-63
2021/07/05 00:35:49;;;;;;;4.57;2.25;;;;;;;16.74;78.43;98452.50;3588991;40;20394;-62
2021/07/05 00:38:17;;;;;;;5.05;2.28;;;;;;;16.80;78.40;98440.03;3598362;40;20409;-62
2021/07/05 00:40:45;;;;;;;3.72;2.45;;;;;;;16.85;78.61;98437.44;3598585;40;22394;-62
2021/07/05 00:43:13;;;;;;;5.68;2.30;;;;;;;16.87;78.26;98434.53;3589014;40;20076;-62
2021/07/05 00:45:41;;;;;;;3.22;2.13;;;;;;;16.81;78.06;98436.31;3598496;40;20332;-62
2021/07/05 00:48:10;;;;;;;9.32;3.00;;;;;;;16.79;78.29;98433.09;3598085;40;20044;-62
2021/07/05 00:50:38;;;;;;;2.92;2.50;;;;;;;16.75;78.66;98431.94;3598387;40;20059;-63
2021/07/05 00:53:06;;;;;;;4.53;2.50;;;;;;;16.69;78.18;98428.34;3598971;40;20048;-62
2021/07/05 00:55:34;;;;;;;4.20;2.15;;;;;;;16.65;78.81;98431.72;3598806;40;20397;-62
2021/07/05 00:58:02;;;;;;;2.40;2.10;;;;;;;16.69;79.12;98423.00;3598230;40;20055;-62
2021/07/05 01:00:31;;;;;;;3.33;1.83;;;;;;;16.71;79.09;98418.25;3603332;39;20437;-63
2021/07/05 01:02:59;;;;;;;2.50;1.90;;;;;;;16.75;78.53;98410.59;3604588;40;20059;-62
2021/07/05 01:05:29;;;;;;;3.08;2.22;;;;;;;16.75;79.11;98410.59;3604452;40;20027;-62
2021/07/05 01:07:57;;;;;;;2.38;2.05;;;;;;;16.80;78.93;98418.69;3599797;40;20340;-62
2021/07/05 01:10:26;;;;;;;5.00;2.25;;;;;;;16.83;79.10;98420.88;3590450;40;20051;-62
2021/07/05 01:12:55;;;;;;;3.72;2.08;;;;;;;16.87;78.72;98430.00;3599734;40;20116;-62
2021/07/05 01:15:26;;;;;;;3.42;2.17;;;;;;;16.87;78.56;98423.88;3599901;40;20407;-62
2021/07/05 01:17:56;;;;;;;3.53;1.92;;;;;;;16.88;79.05;98428.16;3599511;40;20028;-63
2021/07/05 01:20:26;;;;;;;2.08;1.73;;;;;;;16.94;79.03;98421.81;3600025;40;20047;-63
2021/07/05 01:22:56;;;;;;;4.38;2.10;;;;;;;16.94;78.78;98420.00;3600290;40;20040;-62
2021/07/05 01:25:26;;;;;;;2.78;1.85;;;;;;;16.95;78.43;98418.94;3599760;40;20059;-62
2021/07/05 01:27:55;;;;;;;6.20;2.10;;;;;;;16.94;78.52;98420.00;3599582;40;20075;-62
2021/07/05 01:30:24;;;;;;;2.40;2.03;;;;;;;16.95;78.80;98418.13;3599640;40;20052;-62
2021/07/05 01:32:57;;;;;;;2.25;1.85;;;;;;;16.91;78.49;98401.78;3599771;40;20047;-62
2021/07/05 01:35:25;;;;;;;3.38;2.00;;;;;;;16.93;79.04;98394.31;3599759;40;20043;-62
2021/07/05 01:37:54;;;;;;;2.20;1.50;;;;;;;16.95;78.97;98380.75;3599696;40;20052;-63
2021/07/05 01:40:23;;;;;;;2.25;1.80;;;;;;;16.99;78.86;98373.88;3599738;40;20355;-62
2021/07/05 01:42:53;;;;;;;5.78;1.92;;;;;;;17.04;78.77;98368.59;3599505;40;20088;-62
2021/07/05 01:45:30;;;;;;;3.28;1.80;;;;;;;17.08;78.44;98375.06;3599884;40;20408;-62
2021/07/05 01:47:58;;;;;;;2.22;1.83;;;;;;;17.13;78.66;98396.50;3599438;40;20582;-62
2021/07/05 01:50:27;;;;;;;3.80;2.35;;;;;;;17.12;78.56;98418.91;3599542;40;20044;-62
2021/07/05 01:52:56;;;;;;;2.55;2.20;;;;;;;17.14;78.45;98416.00;3601643;40;20374;-63
2021/07/05 01:55:27;;;;;;;3.97;1.67;;;;;;;17.18;78.34;98409.91;3604763;40;20324;-63
2021/07/05 01:57:55;;;;;;;2.35;1.90;;;;;;;17.18;78.08;98403.78;3591420;40;20048;-63
2021/07/05 02:00:24;;;;;;;2.95;1.92;;;;;;;17.18;78.36;98399.22;3599666;40;20080;-63
2021/07/05 02:02:53;;;;;;;2.15;1.92;;;;;;;17.21;78.35;98397.94;3600608;40;20054;-63
2021/07/05 02:05:21;;;;;;;4.47;2.00;;;;;;;17.21;77.97;98400.63;3592279;40;20088;-64
2021/07/05 02:07:50;;;;;;;3.00;2.22;;;;;;;17.21;77.88;98403.28;3601256;40;20072;-63
2021/07/05 02:10:22;;;;;;;3.55;2.00;;;;;;;17.22;78.43;98405.69;3601502;40;20056;-63
2021/07/05 02:12:50;;;;;;;2.33;1.80;;;;;;;17.25;78.14;98410.56;3601228;39;20055;-63
2021/07/05 02:15:18;;;;;;;4.85;1.70;;;;;;;17.22;78.35;98402.22;3601479;40;20411;-62
2021/07/05 02:17:46;;;;;;;6.65;2.20;;;;;;;17.20;77.94;98401.69;3601320;40;20056;-63
2021/07/05 02:20:16;;;;;;;4.97;2.22;;;;;;;17.20;78.37;98389.13;3601385;40;20052;-63
2021/07/05 02:22:45;;;;;;;2.10;1.90;;;;;;;17.25;78.38;98388.38;3601513;40;20131;-62
2021/07/05 02:25:15;;;;;;;4.80;2.25;;;;;;;17.27;78.04;98384.44;3600638;40;20039;-62
2021/07/05 02:27:45;;;;;;;5.13;2.20;;;;;;;17.25;78.38;98385.72;3599926;40;20076;-62
2021/07/05 02:30:15;;;;;;;2.97;2.35;;;;;;;17.20;77.85;98383.78;3599981;40;20040;-63
2021/07/05 02:32:44;;;;;;;2.00;1.88;;;;;;;17.11;78.10;98376.44;3599765;40;20107;-62
2021/07/05 02:35:15;;;;;;;3.60;2.10;;;;;;;17.04;78.85;98373.94;3599509;40;20128;-63
2021/07/05 02:37:44;;;;;;;6.93;2.25;;;;;;;17.04;78.82;98374.75;3598994;40;20377;-62
2021/07/05 02:40:16;;;;;;;4.15;2.05;;;;;;;17.04;79.40;98371.25;3599315;40;20048;-63
2021/07/05 02:42:45;;;;;;;2.72;2.17;;;;;;;17.10;79.20;98364.94;3599429;40;20397;-63
2021/07/05 02:45:16;;;;;;;4.75;2.33;;;;;;;17.20;78.98;98372.28;3599253;40;20051;-62
2021/07/05 02:47:44;;;;;;;4.82;2.00;;;;;;;17.26;79.21;98376.63;3598663;40;20051;-63
2021/07/05 02:50:13;;;;;;;4.07;2.30;;;;;;;17.30;78.70;98367.06;3589665;40;20080;-63
2021/07/05 02:52:41;;;;;;;4.93;2.60;;;;;;;17.30;79.22;98367.88;3589759;40;20074;-63
2021/07/05 02:55:11;;;;;;;2.67;2.30;;;;;;;17.30;78.81;98364.41;3599153;40;20055;-63
2021/07/05 02:57:43;;;;;;;3.90;2.25;;;;;;;17.29;78.87;98362.81;3599268;40;20051;-63
2021/07/05 03:00:14;;;;;;;4.35;2.67;;;;;;;17.23;78.92;98372.63;3599076;40;20063;-63
2021/07/05 03:02:42;;;;;;;2.42;2.08;;;;;;;17.22;79.53;98370.97;3599138;40;20099;-63
2021/07/05 03:05:12;;;;;;;3.15;2.30;;;;;;;17.28;79.65;98358.53;3599138;40;20389;-63
2021/07/05 03:07:40;;;;;;;6.07;3.17;;;;;;;17.34;79.43;98352.16;3589517;40;20088;-64
2021/07/05 03:10:11;;;;;;;2.65;2.20;;;;;;;17.34;78.90;98347.63;3599162;40;20050;-63
2021/07/05 03:12:40;;;;;;;4.78;2.58;;;;;;;17.34;78.69;98357.50;3589932;40;20044;-63
2021/07/05 03:15:11;;;;;;;4.55;1.92;;;;;;;17.31;78.81;98361.50;3591714;40;20073;-64
2021/07/05 03:17:40;;;;;;;4.28;2.40;;;;;;;17.32;78.54;98364.97;3606414;40;20080;-64
2021/07/05 03:20:11;;;;;;;5.13;2.40;;;;;;;17.27;78.82;98365.72;3604579;40;20407;-64
2021/07/05 03:22:39;;;;;;;4.47;2.50;;;;;;;17.28;78.58;98364.66;3602548;39;20074;-65
2021/07/05 03:25:11;;;;;;;4.20;2.03;;;;;;;17.27;79.20;98371.06;3601429;40;20089;-65
2021/07/05 03:27:41;;;;;;;5.18;2.70;;;;;;;17.23;79.29;98367.28;3604065;40;20056;-67
2021/07/05 03:30:11;;;;;;;4.10;2.90;;;;;;;17.23;79.60;98359.25;3605441;40;20389;-63
2021/07/05 03:32:41;;;;;;;3.15;2.58;;;;;;;17.23;78.99;98371.81;3596196;40;20080;-63
2021/07/05 03:35:11;;;;;;;7.45;2.45;;;;;;;17.20;79.06;98372.28;3603117;40;20079;-65
2021/07/05 03:37:40;;;;;;;6.57;2.88;;;;;;;17.18;79.02;98377.06;3599618;40;20051;-63
2021/07/05 03:40:12;;;;;;;4.25;2.45;;;;;;;17.18;79.61;98385.88;3599412;40;20091;-65
2021/07/05 03:42:46;;;;;;;2.85;2.30;;;;;;;17.19;79.28;98384.84;3599050;40;20278;-64
2021/07/05 03:45:16;;;;;;;3.92;2.28;;;;;;;17.15;79.79;98388.25;3599011;40;20056;-64
2021/07/05 03:47:46;;;;;;;4.38;2.28;;;;;;;17.14;79.69;98384.75;3599117;40;20141;-65
2021/07/05 03:50:16;;;;;;;2.80;2.60;;;;;;;17.11;79.79;98379.13;3598890;40;20084;-65
2021/07/05 03:52:45;;;;;;;5.07;2.30;;;;;;;17.09;79.87;98376.66;3599088;40;20406;-64
2021/07/05 03:55:16;;;;;;;4.43;1.98;;;;;;;17.12;79.64;98378.84;3599056;40;20448;-65
2021/07/05 03:57:44;;;;;;;5.75;2.30;;;;;;;17.12;79.63;98381.53;3599389;40;20055;-64
2021/07/05 04:00:15;;;;;;;5.88;2.85;;;;;;;17.14;79.66;98376.75;3599568;40;20087;-64
2021/07/05 04:02:44;;;;;;;4.07;2.42;;;;;;;17.13;79.65;98385.81;3592792;40;20092;-65
2021/07/05 04:05:13;;;;;;;7.03;3.47;;;;;;;17.18;79.58;98390.41;3591819;40;20043;-65
2021/07/05 04:07:43;;;;;;;3.33;2.30;;;;;;;17.18;79.65;98401.91;3600223;40;20055;-65
2021/07/05 04:10:12;;;;;;;3.95;2.58;;;;;;;17.22;79.29;98400.34;3598951;40;20043;-64
2021/07/05 04:12:41;;;;;;;3.53;2.33;;;;;;;17.23;79.36;98393.97;3598802;40;20051;-64
2021/07/05 04:15:12;;;;;;;3.80;3.03;;;;;;;17.24;79.11;98400.94;3599202;40;20320;-64
2021/07/05 04:17:42;;;;;;;4.90;2.70;;;;;;;17.23;79.17;98410.00;3598533;40;20040;-64
2021/07/05 04:20:15;;;;;;;4.13;2.72;;;;;;;17.24;79.32;98402.81;3589426;40;20406;-64
2021/07/05 04:22:43;;;;;;;3.85;2.40;;;;;;;17.23;79.40;98399.31;3598881;40;20029;-63
2021/07/05 04:25:13;;;;;;;3.70;2.60;;;;;;;17.25;79.00;98388.38;3599291;40;20056;-63
2021/07/05 04:27:42;;;;;;;4.05;2.28;;;;;;;17.26;79.32;98385.47;3601881;40;20080;-65
2021/07/05 04:30:11;;;;;;;5.72;2.38;;;;;;;17.21;79.31;98385.38;3602574;40;20083;-64
2021/07/05 04:32:39;;;;;;;4.90;3.20;;;;;;;17.27;78.79;98383.63;3601731;40;20052;-65
2021/07/05 04:35:10;;;;;;;4.88;2.50;;;;;;;17.24;78.62;98387.59;3602353;39;20088;-65
2021/07/05 04:37:40;;;;;;;4.80;2.47;;;;;;;17.24;78.72;98390.25;3603959;40;20076;-64
2021/07/05 04:40:11;;;;;;;6.28;2.20;;;;;;;17.22;78.77;98397.69;3604324;40;20086;-64
2021/07/05 04:42:41;;;;;;;4.60;2.25;;;;;;;17.21;78.65;98401.41;3603173;40;20040;-64
2021/07/05 04:45:10;;;;;;;5.85;2.10;;;;;;;17.21;78.45;98406.75;3600493;40;20051;-63
2021/07/05 04:47:38;;;;;;;4.40;2.30;;;;;;;17.25;78.46;98407.88;3600108;40;20092;-64
2021/07/05 04:50:10;;;;;;;3.83;2.25;;;;;;;17.22;78.63;98405.69;3600965;40;20048;-63
2021/07/05 04:52:38;;;;;;;8.88;2.92;;;;;;;17.21;78.58;98411.31;3600865;40;20056;-63
2021/07/05 04:55:09;;;;;;;7.32;2.60;;;;;;;17.14;78.79;98411.47;3600482;40;20048;-63
2021/07/05 04:57:39;;;;;;;3.85;2.55;;;;;;;17.15;78.96;98401.59;3600276;40;20032;-63
2021/07/05 05:00:11;;;;;;;6.45;2.70;;;;;;;17.18;78.42;98409.91;3600337;40;20097;-67
2021/07/05 05:02:50;;;;;;;4.57;2.83;;;;;;;17.15;78.26;98422.97;3600328;40;20044;-63
2021/07/05 05:05:18;;;;;;;4.55;2.35;;;;;;;17.15;78.39;98409.63;3600867;40;20071;-64
2021/07/05 05:07:46;;;;;;;3.95;2.35;;;;;;;17.16;78.43;98408.56;3593911;40;20056;-64
2021/07/05 05:10:17;;;;;;;4.07;2.38;;;;;;;17.15;78.10;98413.09;3603552;40;20056;-64
2021/07/05 05:12:46;;;;;;;5.65;2.38;;;;;;;17.17;78.01;98413.66;3603723;40;20055;-64
2021/07/05 05:15:17;;;;;;;3.03;2.63;;;;;;;17.18;77.71;98411.78;3602971;40;20047;-64
2021/07/05 05:17:46;;;;;;;4.05;2.15;;;;;;;17.25;78.05;98412.44;3601275;40;20048;-64
2021/07/05 05:20:15;;;;;;;3.50;2.47;;;;;;;17.29;77.17;98405.53;3599965;40;20080;-62
2021/07/05 05:22:43;;;;;;;5.50;2.10;;;;;;;17.27;77.52;98397.78;3599841;40;20051;-63
2021/07/05 05:25:13;;;;;;;8.18;2.33;;;;;;;17.29;77.25;98400.19;3599782;40;20055;-62
2021/07/05 05:27:42;;;;;;;8.57;2.65;;;;;;;17.32;77.27;98407.72;3599835;40;20064;-63
2021/07/05 05:30:12;;;;;;;2.80;2.28;;;;;;;17.29;77.08;98406.34;3599739;40;20064;-63
2021/07/05 05:32:44;;;;;;;4.00;2.30;;;;;;;17.29;77.46;98401.00;3599766;40;20044;-63
2021/07/05 05:35:15;;;;;;;4.57;2.47;;;;;;;17.32;77.27;98408.53;3590238;40;20040;-63
2021/07/05 05:37:43;;;;;;;2.50;2.10;;;;;;;17.27;77.48;98400.44;3599435;40;20338;-64
2021/07/05 05:40:11;;;;;;;4.07;2.53;;;;;;;17.18;77.38;98409.91;3599675;40;20048;-64
2021/07/05 05:42:39;;;;;;;3.63;2.50;;;;;;;17.19;77.38;98414.22;3599684;40;20302;-64
2021/07/05 05:45:11;;;;;;;5.25;3.10;;;;;;;17.18;77.54;98427.81;3599693;40;20405;-64
2021/07/05 05:47:38;;;;;;;7.18;3.00;;;;;;;17.14;77.66;98418.66;3599108;39;20047;-65
2021/07/05 05:50:08;;;;;;;4.45;2.90;;;;;;;17.17;77.48;98427.00;3590340;40;20044;-65
2021/07/05 05:52:36;;;;;;;6.28;3.00;;;;;;;17.17;77.39;98426.19;3590370;40;20085;-65
2021/07/05 05:55:04;;;;;;;6.57;2.60;;;;;;;17.23;77.35;98434.06;3590357;40;20353;-64
2021/07/05 05:57:33;;;;;;;5.97;3.90;;;;;;;17.29;77.30;98427.72;3646347;22;20040;-66
2021/07/05 06:00:02;;;;;;;3.55;2.60;;;;;;;17.24;76.84;98430.31;3590295;40;20056;-67
2021/07/05 06:02:34;;;;;;;3.70;2.90;;;;;;;17.29;76.93;98418.91;3600304;40;20305;-67
2021/07/05 06:05:02;;;;;;;2.63;2.40;;;;;;;17.31;76.81;98424.81;3599885;40;20047;-67
2021/07/05 06:07:30;;;;;;;5.35;2.55;;;;;;;17.34;77.05;98416.28;3590405;40;20052;-67
2021/07/05 06:09:58;;;;;;;4.43;2.92;;;;;;;17.42;76.94;98415.88;3599984;40;20079;-67
2021/07/05 06:12:25;;;;;;;4.43;2.97;;;;;;;17.45;76.60;98420.72;3599763;40;20125;-67
2021/07/05 06:14:53;;;;;;;5.47;2.50;;;;;;;17.49;76.51;98421.06;3599916;40;20044;-67
2021/07/05 06:17:22;;;;;;;4.30;2.30;;;;;;;17.60;76.15;98419.34;3590478;40;20059;-67
2021/07/05 06:19:51;;;;;;;7.60;2.83;;;;;;;17.62;75.64;98414.53;3600508;40;20405;-67
2021/07/05 06:22:26;;;;;;;4.95;3.00;;;;;;;17.66;75.98;98413.78;3600414;40;20051;-66
2021/07/05 06:24:54;;;;;;;5.78;2.53;;;;;;;17.75;75.87;98403.50;3600184;40;20051;-67
2021/07/05 06:27:22;;;;;;;5.90;2.88;;;;;;;17.78;75.22;98421.72;3590983;40;20054;-67
2021/07/05 06:29:50;;;;;;;4.30;2.60;;;;;;;17.80;75.39;98416.94;3599891;40;20058;-67
2021/07/05 06:32:18;;;;;;;3.60;2.55;;;;;;;17.88;75.08;98413.00;3599838;40;20386;-67
2021/07/05 06:34:46;;;;;;;5.60;2.33;;;;;;;17.89;74.76;98409.31;3590483;40;20047;-67
2021/07/05 06:37:15;;;;;;;4.20;2.60;;;;;;;17.92;74.47;98411.44;3599485;40;20055;-66
2021/07/05 06:39:43;;;;;;;6.88;3.50;;;;;;;17.95;74.75;98406.41;3599607;40;20105;-66
2021/07/05 06:42:11;;;;;;;3.70;2.83;;;;;;;17.98;75.12;98426.50;3600041;40;20055;-66
2021/07/05 06:44:39;;;;;;;9.77;5.50;;;;;;;17.92;74.62;98422.16;3600092;40;20055;-66
2021/07/05 06:47:06;;;;;;;6.78;2.67;;;;;;;17.83;74.79;98419.91;3603320;40;20413;-67
2021/07/05 06:49:34;;;;;;;4.75;2.30;;;;;;;17.74;74.35;98426.75;3603268;40;20048;-67
2021/07/05 06:52:03;;;;;;;5.80;2.80;;;;;;;17.75;74.96;98422.22;3601031;40;20325;-67
2021/07/05 06:54:32;;;;;;;4.15;3.22;;;;;;;17.86;75.13;98415.94;3599733;40;20052;-67
2021/07/05 06:57:00;;;;;;;5.50;2.40;;;;;;;17.85;73.85;98418.88;3599105;39;20036;-67
2021/07/05 06:59:28;;;;;;;6.80;2.35;;;;;;;17.84;74.26;98412.72;3590212;40;20079;-68
2021/07/05 07:01:55;;;;;;;3.78;2.30;;;;;;;17.79;73.83;98415.31;3599718;40;20067;-67
2021/07/05 07:04:23;;;;;;;3.67;2.38;;;;;;;17.69;74.39;98421.31;3599353;40;20052;-67
2021/07/05 07:06:51;;;;;;;4.72;2.38;;;;;;;17.71;74.33;98429.88;3599199;40;20051;-67
2021/07/05 07:09:19;;;;;;;2.67;2.20;;;;;;;17.83;73.88;98419.09;3599460;40;20058;-67
2021/07/05 07:11:48;;;;;;;3.08;2.35;;;;;;;17.92;73.80;98420.31;3599407;40;20082;-67
2021/07/05 07:14:19;;;;;;;2.67;2.42;;;;;;;18.03;73.84;98418.53;3599503;40;20060;-67
2021/07/05 07:16:52;;;;;;;15.00;3.72;;;;;;;18.19;73.73;98417.66;3599206;40;20084;-67
2021/07/05 07:19:19;;;;;;;4.85;2.33;;;;;;;18.17;73.44;98414.44;3599551;40;20385;-67
2021/07/05 07:21:49;;;;;;;3.17;2.33;;;;;;;18.09;73.12;98414.88;3599245;40;20051;-67
2021/07/05 07:24:18;;;;;;;2.40;2.20;;;;;;;18.24;73.91;98420.38;3599386;40;20055;-67
2021/07/05 07:26:46;;;;;;;4.05;2.65;;;;;;;18.36;73.46;98419.44;3599057;40;20054;-67
2021/07/05 07:29:15;;;;;;;7.72;2.88;;;;;;;18.41;73.23;98425.66;3599494;40;20044;-67
2021/07/05 07:31:43;;;;;;;3.15;2.38;;;;;;;18.50;73.50;98428.69;3599025;40;20044;-67
2021/07/05 07:34:11;;;;;;;3.75;2.38;;;;;;;18.53;73.05;98418.28;3599469;40;20047;-67
2021/07/05 07:36:40;;;;;;;2.47;2.13;;;;;;;18.41;72.80;98420.31;3598921;40;20087;-67
2021/07/05 07:39:10;;;;;;;2.13;1.85;;;;;;;18.56;72.81;98415.09;3589845;40;20571;-67
2021/07/05 07:41:38;;;;;;;2.47;1.88;;;;;;;18.82;72.01;98412.69;3599453;40;20044;-67
2021/07/05 07:44:06;;;;;;;7.32;2.80;;;;;;;19.02;71.41;98417.38;3590311;40;20048;-66
2021/07/05 07:46:36;;;;;;;2.72;2.00;;;;;;;19.15;71.29;98410.78;3600472;40;20056;-66
2021/07/05 07:49:04;;;;;;;3.83;2.05;;;;;;;19.28;70.69;98404.97;3600713;40;20052;-66
2021/07/05 07:51:33;;;;;;;7.20;4.03;;;;;;;19.52;70.60;98406.19;3600852;40;20072;-66
2021/07/05 07:54:01;;;;;;;4.15;2.40;;;;;;;19.66;69.61;98397.69;3600700;40;20044;-66
2021/07/05 07:56:31;;;;;;;7.68;1.90;;;;;;;19.47;69.15;98392.75;3600359;40;20040;-66
2021/07/05 07:59:01;;;;;;;3.35;2.08;;;;;;;19.40;69.41;98389.50;3600489;40;20100;-66
2021/07/05 08:01:29;;;;;;;4.90;2.08;;;;;;;19.26;69.34;98394.50;3600511;40;20055;-66
2021/07/05 08:03:58;;;;;;;4.32;1.90;;;;;;;19.17;69.92;98403.28;3590943;40;20076;-65
2021/07/05 08:06:26;;;;;;;2.17;1.70;;;;;;;19.33;70.07;98394.28;3600091;40;20059;-65
2021/07/05 08:08:55;;;;;;;4.72;2.28;;;;;;;19.49;69.56;98389.81;3600285;40;20406;-65
2021/07/05 08:11:24;;;;;;;4.00;1.90;;;;;;;19.60;69.20;98386.13;3590714;40;20059;-65
2021/07/05 08:13:52;;;;;;;3.63;2.05;;;;;;;19.64;69.61;98379.19;3600336;40;20408;-65
2021/07/05 08:16:20;;;;;;;2.97;1.55;;;;;;;19.74;68.72;98376.53;3600525;40;20072;-66
2021/07/05 08:18:47;;;;;;;2.67;1.60;;;;;;;19.89;68.21;98375.78;3601048;40;20143;-66
2021/07/05 08:21:17;;;;;;;3.53;2.10;;;;;;;19.98;68.14;98368.03;3600852;40;20052;-66
2021/07/05 08:23:45;;;;;;;3.70;1.92;;;;;;;19.93;67.82;98368.84;3600570;40;20054;-66
2021/07/05 08:26:13;;;;;;;2.53;1.52;;;;;;;19.99;67.08;98372.31;3600307;40;20040;-65
2021/07/05 08:28:41;;;;;;;8.60;2.03;;;;;;;19.85;67.37;98374.72;3600097;40;20060;-65
2021/07/05 08:31:09;;;;;;;3.85;1.58;;;;;;;19.87;67.31;98375.25;3600457;40;20056;-66
2021/07/05 08:33:37;;;;;;;4.47;1.70;;;;;;;19.98;66.81;98374.22;3600789;40;20048;-66
2021/07/05 08:36:07;;;;;;;3.75;2.05;;;;;;;20.14;66.98;98371.56;3590251;40;20051;-65
2021/07/05 08:38:36;;;;;;;5.50;1.70;;;;;;;20.25;66.85;98368.66;3600422;40;20047;-66
2021/07/05 08:41:04;;;;;;;3.60;1.80;;;;;;;20.20;66.12;98365.94;3600074;40;20059;-66
2021/07/05 08:43:32;;;;;;;5.03;1.95;;;;;;;20.14;66.88;98366.22;3600588;40;20055;-66
2021/07/05 08:46:04;;;;;;;3.42;2.10;;;;;;;20.22;66.17;98361.13;3603887;40;20035;-67
2021/07/05 08:48:34;;;;;;;3.72;2.20;;;;;;;20.17;66.93;98361.13;3604434;40;20048;-66
2021/07/05 08:51:04;;;;;;;4.70;2.00;;;;;;;20.11;67.11;98358.69;3600716;40;20048;-65
2021/07/05 08:53:32;;;;;;;3.20;2.10;;;;;;;20.01;66.76;98356.78;3600316;40;20035;-66
2021/07/05 08:56:01;;;;;;;2.45;1.67;;;;;;;20.00;66.63;98347.09;3600257;40;20084;-66
2021/07/05 08:58:29;;;;;;;5.15;1.98;;;;;;;19.98;66.95;98351.94;3599497;40;20072;-67
2021/07/05 09:00:57;;;;;;;3.72;1.77;;;;;;;19.96;67.13;98344.16;3599426;40;20048;-68
2021/07/05 09:03:27;;;;;;;6.78;2.13;;;;;;;19.84;67.03;98343.59;3589765;40;20078;-67
2021/07/05 09:06:10;;;;;;;4.43;1.90;;;;;;;19.78;66.85;98344.63;3590502;40;20044;-67
2021/07/05 09:08:39;;;;;;;4.57;1.80;;;;;;;19.53;67.43;98350.69;3591064;40;20351;-63
2021/07/05 09:11:10;;;;;;;3.67;1.40;;;;;;;19.24;67.93;98352.97;3600019;40;20043;-63
2021/07/05 09:13:48;;;;;;;6.00;1.70;;;;;;;19.07;68.68;98361.16;3600066;40;20059;-64
2021/07/05 09:16:30;;;;;;;2.75;1.52;;;;;;;19.14;69.29;98347.53;3599934;40;20099;-63
2021/07/05 09:18:58;;;;;;;3.67;1.90;;;;;;;19.31;69.31;98342.81;3600076;40;20079;-63
2021/07/05 09:21:29;;;;;;;3.05;1.63;;;;;;;19.45;69.38;98357.34;3600781;39;20332;-63
2021/07/05 09:24:02;;;;;;;6.25;2.42;;;;;;;19.47;69.68;98354.41;3602018;40;20506;-63
2021/07/05 09:26:34;;;;;;;5.00;1.87;;;;;;;19.37;70.42;98355.16;3602135;40;20433;-63
2021/07/05 09:29:04;;;;;;;2.00;1.80;;;;;;;19.47;70.36;98357.06;3601659;40;20270;-63
2021/07/05 09:31:36;;;;;;;4.00;2.83;;;;;;;19.64;70.16;98357.75;3602067;40;20055;-64
2021/07/05 09:34:13;;;;;;;2.42;1.52;;;;;;;19.74;70.01;98363.13;3601958;40;20032;-64
2021/07/05 09:36:41;;;;;;;5.05;1.75;;;;;;;19.83;69.50;98357.25;3600461;40;20048;-67
2021/07/05 09:39:16;;;;;;;3.60;1.52;;;;;;;19.91;69.54;98354.88;3601789;40;20047;-64
2021/07/05 09:41:46;;;;;;;1.98;1.42;;;;;;;20.01;69.49;98354.91;3602654;40;20052;-64
2021/07/05 09:44:16;;;;;;;1.58;1.30;;;;;;;20.04;68.40;98340.13;3599858;40;20088;-63
2021/07/05 09:46:47;;;;;;;2.30;1.65;;;;;;;20.07;69.01;98336.13;3599452;40;20040;-64
2021/07/05 09:49:19;;;;;;;1.45;1.17;;;;;;;20.27;68.91;98331.59;3590397;40;20080;-63
2021/07/05 09:51:48;;;;;;;1.70;1.42;;;;;;;20.48;68.24;98343.19;3590670;40;20056;-63
2021/07/05 09:54:18;;;;;;;2.13;1.20;;;;;;;20.81;67.05;98341.03;3599720;40;20416;-63
2021/07/05 09:56:47;;;;;;;1.55;1.20;;;;;;;21.06;67.43;98342.06;3590006;40;20393;-63
2021/07/05 09:59:18;;;;;;;3.10;1.23;;;;;;;20.95;66.46;98344.78;3600178;40;20343;-64
2021/07/05 10:01:47;;;;;;;1.67;1.20;;;;;;;20.70;66.24;98353.69;3600720;40;20084;-64
2021/07/05 10:04:23;;;;;;;0.90;0.90;;;;;;;20.56;65.68;98349.91;3600653;40;20044;-63
2021/07/05 10:06:52;;;;;;;0.88;0.85;;;;;;;20.44;65.28;98343.97;3600230;40;20059;-64
2021/07/05 10:09:30;;;;;;;1.10;0.85;;;;;;;20.31;64.49;98345.28;3600545;40;20052;-68
2021/07/05 10:12:15;;;;;;;4.60;1.40;;;;;;;20.23;65.47;98352.00;3601217;40;20056;-67
2021/07/05 10:14:43;;;;;;;0.80;0.80;;;;;;;20.12;65.20;98338.81;3601056;40;20335;-67
2021/07/05 10:17:15;;;;;;;1.55;1.23;;;;;;;20.16;65.75;98348.75;3591353;40;20072;-68
2021/07/05 10:19:44;;;;;;;2.50;1.15;;;;;;;20.13;65.22;98348.50;3601352;40;20047;-68
2021/07/05 10:22:13;;;;;;;1.40;1.10;;;;;;;20.15;65.44;98339.09;3601041;40;20088;-67
2021/07/05 10:24:41;;;;;;;1.88;1.15;;;;;;;20.15;65.10;98336.41;3600747;40;20040;-67
2021/07/05 10:27:12;;;;;;;1.52;0.98;;;;;;;20.24;64.89;98339.38;3600317;40;20337;-67
2021/07/05 10:29:40;;;;;;;1.58;1.05;;;;;;;20.56;64.34;98333.00;3600900;40;20405;-68
2021/07/05 10:32:10;;;;;;;1.10;0.88;;;;;;;20.80;63.81;98331.38;3600622;39;20047;-67
2021/07/05 10:34:40;;;;;;;1.00;0.90;;;;;;;20.86;62.90;98335.66;3601045;40;20047;-68
2021/07/05 10:37:17;;;;;;;3.05;1.10;;;;;;;20.89;63.30;98328.94;3591547;40;20047;-68
2021/07/05 10:39:48;;;;;;;1.63;1.00;;;;;;;20.84;62.40;98331.63;3601508;40;20055;-68
2021/07/05 10:42:37;;;;;;;1.65;0.80;;;;;;;20.69;63.11;98338.63;3601331;40;20055;-68
2021/07/05 10:45:09;;;;;;;0.80;0.60;;;;;;;20.65;63.78;98337.53;3600583;40;20055;-68
2021/07/05 10:47:52;;;;;;;1.25;1.05;;;;;;;20.68;64.33;98328.94;3599942;40;20063;-68
2021/07/05 10:50:38;;;;;;;2.13;0.93;;;;;;;20.55;64.56;98328.69;3600403;40;20493;-67
2021/07/05 10:53:06;;;;;;;1.15;0.90;;;;;;;20.58;64.80;98323.59;3599561;40;20050;-67
2021/07/05 10:55:36;;;;;;;1.08;0.93;;;;;;;20.70;64.64;98331.38;3599413;40;20124;-67
2021/07/05 10:58:16;;;;;;;4.40;1.02;;;;;;;20.81;64.70;98330.28;3599328;40;20036;-67
2021/07/05 11:00:46;;;;;;;2.10;0.90;;;;;;;20.93;64.92;98321.94;3599363;40;20476;-68
2021/07/05 11:03:47;;;;;;;1.75;1.00;;;;;;;21.18;63.48;98318.38;3590283;40;20076;-67
2021/07/05 11:06:42;;;;;;;3.20;1.60;;;;;;;21.21;63.28;98320.53;3599643;40;20106;-67
2021/07/05 11:09:10;;;;;;;1.75;0.93;;;;;;;21.33;62.91;98310.31;3599567;40;20048;-67
2021/07/05 11:11:47;;;;;;;1.45;1.30;;;;;;;21.39;62.48;98311.09;3599290;40;20329;-67
2021/07/05 11:14:21;;;;;;;2.10;1.10;;;;;;;21.45;62.63;98307.31;3599565;40;20048;-68
2021/07/05 11:17:11;;;;;;;1.42;1.10;;;;;;;21.37;62.82;98305.19;3590560;40;20044;-68
2021/07/05 11:19:45;;;;;;;2.72;0.90;;;;;;;21.21;63.92;98318.66;3597024;40;20095;-68
2021/07/05 11:22:29;;;;;;;1.00;0.80;;;;;;;20.98;64.34;98313.84;3592335;40;20024;-66
2021/07/05 11:24:59;;;;;;;2.67;1.05;;;;;;;20.92;64.93;98306.91;3601790;40;20079;-66
2021/07/05 11:27:34;;;;;;;1.67;0.80;;;;;;;20.94;65.12;98310.94;3602259;40;20052;-66
2021/07/05 11:30:30;;;;;;;3.20;0.80;;;;;;;20.93;65.78;98319.25;3602949;40;20405;-66
2021/07/05 11:33:01;;;;;;;1.88;0.77;;;;;;;20.67;66.73;98311.22;3598155;40;20036;-66
2021/07/05 11:35:41;;;;;;;0.98;0.82;;;;;;;20.50;67.45;98305.34;3599228;40;20079;-67
2021/07/05 11:38:12;;;;;;;1.27;0.70;;;;;;;20.48;67.57;98304.75;3599783;40;20027;-67
2021/07/05 11:40:50;;;;;;;0.60;0.60;;;;;;;20.51;68.24;98306.94;3599807;40;20052;-67
2021/07/05 11:43:56;;;;;;;1.40;0.65;;;;;;;20.60;67.57;98309.91;3599488;40;20084;-67
2021/07/05 11:46:53;;;;;;;1.98;1.80;;;;;;;20.50;68.08;98305.34;3599529;40;20393;-67
2021/07/05 11:49:26;;;;;;;0.55;0.55;;;;;;;20.42;68.81;98311.22;3590893;40;20296;-67